Time;durP1;ratioP1;P1;durP2;ratioP2;P2;SDS_P1;SDS_P2;PMS_P1;PMS_P2;Temp;Humidity;BMP_temperature;BMP_pressure;BME280_temperature;BME280_humidity;BME280_pressure;Samples;Min_cycle;Max_cycle;Signal;HPM_P1;HPM_P2
2021/05/18 12:59:16;;;;;;;2.58;1.35;;;;;;;;;;5101510;28;20023;-86
2021/05/18 13:01:44;;;;;;;1.88;1.02;;;;;;;;;;5094734;28;20012;-79
2021/05/18 13:04:12;;;;;;;2.22;1.20;;;;;;;;;;5101384;28;20020;-79
2021/05/18 13:06:45;;;;;;;1.73;1.10;;;;;;;;;;5091210;28;20048;-81
2021/05/18 13:09:18;;;;;;;1.88;1.17;;;;;;;;;;5095944;28;20085;-80
2021/05/18 13:14:50;;;;;;;1.30;0.85;;;;;;;;;;5105325;28;20074;-90
2021/05/18 13:17:17;;;;;;;5.32;1.15;;;;;;;;;;5088745;28;20035;-88
2021/05/18 13:19:55;;;;;;;1.45;0.93;;;;;;;;;;5110557;28;20024;-90
2021/05/18 13:22:22;;;;;;;1.67;1.00;;;;;;;;;;5102059;28;20496;-84
2021/05/18 13:27:52;;;;;;;1.33;0.98;;;;;;;;;;5110459;28;20081;-86
2021/05/18 13:30:21;;;;;;;2.47;0.98;;;;;;;;;;5106620;28;20024;-87
2021/05/18 13:32:48;;;;;;;2.70;1.37;;;;;;;;;;5099087;28;20031;-88
2021/05/18 13:35:17;;;;;;;3.67;1.70;;;;;;;;;;5104315;28;20023;-91
2021/05/18 13:40:48;;;;;;;2.35;1.42;;;;;;;;;;5093673;28;20104;-89
2021/05/18 13:43:16;;;;;;;2.95;1.50;;;;;;;;;;5102239;28;20020;-84
2021/05/18 13:46:52;;;;;;;3.33;1.70;;;;;;;;;;5088762;28;20849;-70
2021/05/18 14:01:51;;;;;;;3.17;1.13;;;;;;;;;;5104731;27;20953;-66
2021/05/18 14:04:17;;;;;;;2.13;1.10;;;;;;;;;;5098689;28;20020;-67
2021/05/18 14:07:12;;;;;;;2.75;1.10;;;;;;;;;;5099906;28;20024;-65
2021/05/18 14:09:39;;;;;;;1.85;0.90;;;;;;;;;;5079889;28;20017;-67
2021/05/18 14:12:05;;;;;;;1.50;0.93;;;;;;;;;;5082590;28;20031;-67
2021/05/18 14:14:33;;;;;;;0.93;0.60;;;;;;;;;;5079010;28;20024;-66
2021/05/18 14:16:59;;;;;;;1.17;0.80;;;;;;;;;;5080284;28;20008;-67
2021/05/18 14:19:25;;;;;;;1.52;0.90;;;;;;;;;;5078747;28;20108;-66
2021/05/18 14:21:52;;;;;;;1.85;0.82;;;;;;;;;;5079048;28;20509;-66
2021/05/18 14:24:22;;;;;;;1.98;0.80;;;;;;;;;;5075597;28;20044;-66
2021/05/18 14:26:48;;;;;;;3.22;0.85;;;;;;;;;;5073446;28;20020;-66
2021/05/18 14:29:15;;;;;;;1.52;1.05;;;;;;;;;;5081450;28;20021;-66
2021/05/18 14:31:41;;;;;;;1.50;0.88;;;;;;;;;;5069141;28;20028;-66
2021/05/18 14:34:08;;;;;;;1.85;0.90;;;;;;;;;;5069416;28;20032;-66
2021/05/18 14:36:34;;;;;;;2.75;1.02;;;;;;;;;;5069331;28;20023;-66
2021/05/18 14:39:04;;;;;;;2.67;1.30;;;;;;;;;;5067606;28;20025;-66
2021/05/18 14:44:26;;;;;;;1.73;0.98;;;;;;;;;;5068056;28;20036;-66
2021/05/18 14:47:17;;;;;;;1.15;0.80;;;;;;;;;;5068391;28;20024;-65
2021/05/18 14:55:25;;;;;;;0.98;0.70;;;;;;;;;;5069078;28;20058;-66
2021/05/18 15:00:55;;;;;;;1.15;0.60;;;;;;;;;;5069499;28;20401;-67
2021/05/18 15:03:22;;;;;;;1.17;0.80;;;;;;;;;;5072117;28;20020;-67
2021/05/18 15:05:48;;;;;;;1.38;0.80;;;;;;;;;;5076023;28;20104;-68
2021/05/18 15:08:15;;;;;;;1.33;0.68;;;;;;;;;;5076768;28;20086;-67
2021/05/18 15:10:41;;;;;;;1.40;0.80;;;;;;;;;;5088085;28;20024;-67
2021/05/18 15:13:08;;;;;;;1.50;0.60;;;;;;;;;;5075041;28;20433;-67
2021/05/18 15:15:34;;;;;;;1.58;0.90;;;;;;;;;;5066809;28;20123;-67
2021/05/18 15:18:01;;;;;;;1.55;0.70;;;;;;;;;;5061395;28;20142;-67
2021/05/18 15:20:27;;;;;;;1.05;0.70;;;;;;;;;;5067106;28;20031;-66
2021/05/18 15:22:54;;;;;;;1.00;0.60;;;;;;;;;;5063698;28;20078;-66
2021/05/18 15:25:23;;;;;;;2.70;0.68;;;;;;;;;;5064263;28;20048;-66
2021/05/18 15:27:50;;;;;;;;;;;;;;;;;;5064955;28;20470;-67
2021/05/18 15:30:16;;;;;;;1.10;0.80;;;;;;;;;;5059038;28;19995;-67
2021/05/18 15:32:42;;;;;;;1.80;0.95;;;;;;;;;;5068223;28;20060;-67
2021/05/18 15:35:09;;;;;;;4.03;0.80;;;;;;;;;;5055044;28;20036;-66
2021/05/18 15:37:35;;;;;;;1.67;0.80;;;;;;;;;;5054491;28;20037;-67
2021/05/18 15:40:03;;;;;;;1.67;1.10;;;;;;;;;;5053761;28;20482;-66
2021/05/18 15:42:29;;;;;;;3.50;1.17;;;;;;;;;;5054014;28;20048;-66
2021/05/18 15:44:56;;;;;;;2.78;1.13;;;;;;;;;;5054885;28;20032;-67
2021/05/18 15:47:22;;;;;;;2.25;1.10;;;;;;;;;;5058064;28;20029;-67
2021/05/18 15:49:49;;;;;;;1.63;1.15;;;;;;;;;;5062611;28;20029;-69
2021/05/18 15:52:30;;;;;;;1.60;1.10;;;;;;;;;;5049312;28;20078;-67
2021/05/18 15:54:59;;;;;;;2.58;1.35;;;;;;;;;;5048913;28;20036;-70
2021/05/18 15:57:25;;;;;;;2.45;1.42;;;;;;;;;;5050916;28;20398;-70
2021/05/18 15:59:51;;;;;;;2.53;1.80;;;;;;;;;;5050972;28;20037;-70
2021/05/18 16:02:17;;;;;;;3.42;2.25;;;;;;;;;;5054177;28;20020;-70
2021/05/18 16:04:44;;;;;;;3.10;2.13;;;;;;;;;;5070549;28;20119;-72
2021/05/18 16:07:13;;;;;;;2.78;1.88;;;;;;;;;;5059117;28;20017;-71
2021/05/18 16:09:39;;;;;;;3.63;2.20;;;;;;;;;;5059488;28;20021;-68
2021/05/18 16:12:07;;;;;;;3.20;1.95;;;;;;;;;;5062986;28;20366;-70
2021/05/18 16:14:34;;;;;;;2.53;1.67;;;;;;;;;;5062186;28;20104;-70
2021/05/18 16:17:01;;;;;;;5.53;2.03;;;;;;;;;;5060750;28;20028;-68
2021/05/18 16:19:27;;;;;;;5.22;2.17;;;;;;;;;;5052618;28;20523;-68
2021/05/18 16:21:54;;;;;;;2.90;2.03;;;;;;;;;;5052572;28;20512;-69
2021/05/18 16:24:21;;;;;;;3.58;2.50;;;;;;;;;;5068507;28;20131;-70
2021/05/18 16:26:49;;;;;;;5.28;2.72;;;;;;;;;;5061552;28;20027;-70
2021/05/18 16:29:15;;;;;;;5.85;2.30;;;;;;;;;;5072082;28;20021;-69
2021/05/18 16:31:42;;;;;;;3.78;2.25;;;;;;;;;;5059411;28;20075;-69
2021/05/18 16:34:08;;;;;;;3.97;2.80;;;;;;;;;;5062441;28;20104;-69
2021/05/18 16:36:35;;;;;;;4.03;2.58;;;;;;;;;;5062431;28;20035;-72
2021/05/18 16:39:01;;;;;;;5.28;2.45;;;;;;;;;;5059628;28;20051;-72
2021/05/18 16:41:28;;;;;;;4.55;2.58;;;;;;;;;;5061291;28;20358;-73
2021/05/18 16:43:54;;;;;;;3.90;2.38;;;;;;;;;;5060672;28;20421;-72
2021/05/18 16:46:20;;;;;;;4.22;2.08;;;;;;;;;;5060756;28;20089;-73
2021/05/18 16:48:47;;;;;;;5.55;2.60;;;;;;;;;;5062008;28;20017;-71
2021/05/18 16:51:13;;;;;;;2.95;1.83;;;;;;;;;;5060748;28;20040;-73
2021/05/18 16:53:41;;;;;;;3.70;2.58;;;;;;;;;;5064586;28;20024;-70
2021/05/18 16:56:09;;;;;;;5.13;2.63;;;;;;;;;;5062132;28;20169;-71
2021/05/18 16:58:35;;;;;;;3.53;2.25;;;;;;;;;;5060384;28;20016;-70
2021/05/18 17:01:02;;;;;;;3.38;2.40;;;;;;;;;;5061549;28;20049;-70
2021/05/18 17:03:28;;;;;;;3.15;1.83;;;;;;;;;;5062037;28;20096;-72
2021/05/18 17:05:55;;;;;;;3.42;2.53;;;;;;;;;;5059528;28;20104;-70
2021/05/18 17:08:21;;;;;;;4.65;2.05;;;;;;;;;;5060060;28;20413;-71
2021/05/18 17:10:48;;;;;;;4.03;1.83;;;;;;;;;;5066830;28;20100;-71
2021/05/18 17:13:14;;;;;;;7.28;2.15;;;;;;;;;;5052974;28;20394;-70
2021/05/18 17:15:41;;;;;;;3.05;1.85;;;;;;;;;;5054637;28;20044;-70
2021/05/18 17:18:07;;;;;;;4.82;2.53;;;;;;;;;;5054543;28;20106;-70
2021/05/18 17:20:35;;;;;;;3.97;2.67;;;;;;;;;;5066422;28;20031;-70
2021/05/18 17:23:02;;;;;;;4.07;2.33;;;;;;;;;;5066798;28;20486;-72
2021/05/18 17:25:29;;;;;;;5.15;2.42;;;;;;;;;;5061047;28;20021;-72
2021/05/18 17:30:58;;;;;;;4.88;2.10;;;;;;;;;;5053051;28;20157;-71
2021/05/18 17:33:25;;;;;;;4.10;2.25;;;;;;;;;;5071561;28;20021;-71
2021/05/18 17:35:51;;;;;;;4.80;2.30;;;;;;;;;;5057811;28;20025;-70
2021/05/18 17:38:18;;;;;;;8.43;2.40;;;;;;;;;;5056017;28;20025;-70
2021/05/18 17:43:47;;;;;;;4.40;2.95;;;;;;;;;;5052036;28;20055;-70
2021/05/18 17:49:21;;;;;;;3.63;2.30;;;;;;;;;;5054560;28;20039;-73
2021/05/18 17:51:47;;;;;;;3.67;2.33;;;;;;;;;;5059567;28;20025;-70
2021/05/18 17:54:13;;;;;;;4.72;2.83;;;;;;;;;;5053670;28;20043;-70
2021/05/18 17:56:57;;;;;;;5.43;2.88;;;;;;;;;;5051788;28;20025;-70
2021/05/18 17:59:55;;;;;;;4.53;2.72;;;;;;;;;;5058919;28;20037;-71
2021/05/18 18:02:47;;;;;;;4.97;2.60;;;;;;;;;;5047191;28;20068;-72
2021/05/18 18:05:13;;;;;;;4.95;2.45;;;;;;;;;;5051878;28;20021;-74
2021/05/18 18:10:48;;;;;;;3.67;2.30;;;;;;;;;;5058265;28;20101;-73
2021/05/18 18:13:15;;;;;;;10.40;3.20;;;;;;;;;;5060880;28;20077;-72
2021/05/18 18:15:42;;;;;;;2.80;1.95;;;;;;;;;;5059762;28;20029;-73
2021/05/18 18:18:08;;;;;;;3.78;2.40;;;;;;;;;;5059366;28;20046;-73
2021/05/18 18:20:35;;;;;;;3.80;2.30;;;;;;;;;;5057957;28;20462;-72
2021/05/18 18:23:01;;;;;;;4.97;2.58;;;;;;;;;;5060352;28;20024;-72
2021/05/18 18:25:27;;;;;;;4.13;2.75;;;;;;;;;;5060305;28;20194;-73
2021/05/18 18:27:54;;;;;;;4.00;2.50;;;;;;;;;;5057398;28;20394;-72
2021/05/18 18:30:21;;;;;;;4.00;2.60;;;;;;;;;;5057913;28;20057;-71
2021/05/18 18:32:47;;;;;;;4.38;2.60;;;;;;;;;;5060143;28;20029;-71
2021/05/18 18:35:14;;;;;;;5.18;2.63;;;;;;;;;;5058758;28;20485;-70
2021/05/18 18:37:42;;;;;;;5.97;2.90;;;;;;;;;;5060120;28;20032;-72
2021/05/18 18:40:10;;;;;;;5.47;3.38;;;;;;;;;;5058875;28;20029;-71
2021/05/18 18:42:36;;;;;;;4.28;2.65;;;;;;;;;;5056190;28;20016;-73
2021/05/18 18:45:03;;;;;;;6.38;3.25;;;;;;;;;;5059156;28;20116;-73
2021/05/18 18:47:29;;;;;;;5.40;3.33;;;;;;;;;;5060600;28;20024;-71
2021/05/18 18:55:39;;;;;;;;;;;;;;;;;;5061406;28;20024;-73
2021/05/18 18:58:05;;;;;;;4.68;2.85;;;;;;;;;;5061118;28;19935;-74
2021/05/18 19:00:31;;;;;;;3.40;2.30;;;;;;;;;;5058203;28;20144;-74
2021/05/18 19:03:09;;;;;;;6.30;2.75;;;;;;;;;;5061229;28;20029;-74
2021/05/18 19:13:16;;;;;;;3.20;2.55;;;;;;;;;;5062678;28;20417;-75
2021/05/18 19:15:43;;;;;;;5.25;2.70;;;;;;;;;;5062840;28;20020;-72
2021/05/18 19:18:20;;;;;;;5.28;2.53;;;;;;;;;;5063172;28;20033;-73
2021/05/18 19:20:52;;;;;;;6.55;3.30;;;;;;;;;;5060649;28;20687;-72
2021/05/18 19:23:18;;;;;;;5.38;3.10;;;;;;;;;;5055461;28;20040;-74
2021/05/18 19:25:45;;;;;;;4.13;2.80;;;;;;;;;;5066743;28;20539;-74
2021/05/18 19:28:12;;;;;;;5.53;3.10;;;;;;;;;;5065100;28;20470;-73
2021/05/18 19:30:39;;;;;;;4.93;3.05;;;;;;;;;;5055717;28;20029;-73
2021/05/18 19:33:27;;;;;;;4.53;2.85;;;;;;;;;;5054680;28;20288;-71
2021/05/18 19:43:59;;;;;;;4.28;2.92;;;;;;;;;;5064082;28;20246;-71
2021/05/18 19:51:34;;;;;;;7.45;2.85;;;;;;;;;;5062261;28;20033;-72
2021/05/18 19:54:00;;;;;;;5.30;3.17;;;;;;;;;;5065882;28;20017;-72
2021/05/18 20:23:26;;;;;;;6.75;4.07;;;;;;;;;;5064334;28;20036;-73
2021/05/18 20:25:52;;;;;;;7.57;4.82;;;;;;;;;;5063746;28;20478;-71
2021/05/18 20:28:18;;;;;;;7.20;4.55;;;;;;;;;;5064006;28;20028;-73
2021/05/18 20:30:48;;;;;;;7.53;3.97;;;;;;;;;;5064166;28;20033;-73
2021/05/18 20:33:30;;;;;;;8.40;4.55;;;;;;;;;;5064498;28;20027;-74
2021/05/18 20:41:23;;;;;;;8.63;5.15;;;;;;;;;;5059024;28;20540;-74
2021/05/18 20:43:50;;;;;;;7.57;4.72;;;;;;;;;;5055759;28;20025;-66
2021/05/18 20:46:16;;;;;;;7.43;4.85;;;;;;;;;;5058687;28;20017;-66
2021/05/18 20:48:43;;;;;;;8.00;5.38;;;;;;;;;;5064188;28;20025;-65
2021/05/18 20:51:09;;;;;;;8.57;4.65;;;;;;;;;;5060295;28;20021;-65
2021/05/18 20:53:36;;;;;;;10.50;4.40;;;;;;;;;;5059387;28;20029;-65
2021/05/18 20:56:04;;;;;;;7.40;4.90;;;;;;;;;;5052058;28;20044;-63
2021/05/18 20:58:30;;;;;;;8.30;4.15;;;;;;;;;;5053434;28;20104;-66
2021/05/18 21:00:56;;;;;;;8.35;4.75;;;;;;;;;;5052868;28;20581;-64
2021/05/18 21:03:22;;;;;;;8.02;4.82;;;;;;;;;;5053611;28;20021;-66
2021/05/18 21:05:53;;;;;;;7.65;5.10;;;;;;;;;;5053421;28;20041;-66
2021/05/18 21:16:19;;;;;;;9.57;5.45;;;;;;;;;;5044692;28;20478;-66
2021/05/18 21:18:46;;;;;;;9.13;5.75;;;;;;;;;;5053159;28;20025;-66
2021/05/18 21:21:12;;;;;;;8.77;5.80;;;;;;;;;;5052367;28;20482;-66
2021/05/18 21:23:39;;;;;;;9.80;6.03;;;;;;;;;;5051887;28;20031;-66
2021/05/18 21:26:41;;;;;;;12.93;5.68;;;;;;;;;;5051857;28;20035;-65
2021/05/18 21:29:07;;;;;;;9.95;5.72;;;;;;;;;;5048747;28;20036;-66
2021/05/18 21:31:33;;;;;;;10.60;6.60;;;;;;;;;;5051918;28;20021;-66
2021/05/18 21:34:04;;;;;;;9.02;6.18;;;;;;;;;;5052106;28;20029;-66
2021/05/18 21:36:31;;;;;;;10.50;5.78;;;;;;;;;;5050268;28;20040;-66
2021/05/18 21:38:58;;;;;;;9.52;6.22;;;;;;;;;;5051095;28;20032;-66
2021/05/18 21:41:24;;;;;;;9.93;5.60;;;;;;;;;;5052807;28;20029;-66
2021/05/18 21:43:50;;;;;;;10.80;5.85;;;;;;;;;;5052349;28;20029;-66
2021/05/18 21:46:17;;;;;;;9.70;6.22;;;;;;;;;;5055211;28;20104;-66
2021/05/18 21:48:43;;;;;;;12.75;6.45;;;;;;;;;;5061486;28;20473;-66
2021/05/18 21:51:10;;;;;;;8.38;5.47;;;;;;;;;;5062116;28;20074;-66
2021/05/18 21:53:36;;;;;;;9.18;6.40;;;;;;;;;;5061089;28;20024;-66
2021/05/18 21:56:02;;;;;;;12.25;6.22;;;;;;;;;;5061591;28;20382;-66
2021/05/18 21:58:29;;;;;;;15.52;7.05;;;;;;;;;;5060893;28;20045;-66
2021/05/18 22:00:55;;;;;;;10.93;6.35;;;;;;;;;;5061966;28;20497;-66
2021/05/18 22:03:21;;;;;;;12.40;6.93;;;;;;;;;;5062824;28;20096;-66
2021/05/18 22:05:50;;;;;;;10.73;7.45;;;;;;;;;;5059753;28;20025;-66
2021/05/18 22:13:45;;;;;;;11.75;7.13;;;;;;;;;;5052265;28;20067;-65
2021/05/18 22:27:20;;;;;;;13.30;7.32;;;;;;;;;;5054162;28;20040;-66
2021/05/18 22:29:47;;;;;;;12.40;7.78;;;;;;;;;;5053251;28;20040;-65
2021/05/18 22:32:13;;;;;;;12.57;7.93;;;;;;;;;;5055561;28;20493;-65
2021/05/18 22:34:40;;;;;;;13.90;7.93;;;;;;;;;;5055156;28;20025;-66
2021/05/18 22:37:06;;;;;;;14.48;7.68;;;;;;;;;;5055796;28;20019;-65
2021/05/18 22:39:32;;;;;;;11.00;6.93;;;;;;;;;;5055522;28;20135;-65
2021/05/18 22:41:59;;;;;;;13.70;7.60;;;;;;;;;;5055660;28;20050;-65
2021/05/18 22:44:25;;;;;;;13.80;7.07;;;;;;;;;;5055584;28;20032;-65
2021/05/18 22:46:52;;;;;;;13.40;7.50;;;;;;;;;;5055170;28;20033;-65
2021/05/18 22:49:18;;;;;;;11.18;7.47;;;;;;;;;;5054658;28;20029;-65
2021/05/18 22:51:45;;;;;;;13.77;7.82;;;;;;;;;;5055345;28;20116;-66
2021/05/18 22:54:11;;;;;;;14.55;7.32;;;;;;;;;;5055760;28;20029;-66
2021/05/18 22:56:37;;;;;;;13.65;8.40;;;;;;;;;;5055815;28;20017;-65
2021/05/18 22:59:04;;;;;;;13.18;8.02;;;;;;;;;;5055344;28;20479;-65
2021/05/18 23:01:30;;;;;;;10.88;6.72;;;;;;;;;;5055462;28;20069;-66
2021/05/18 23:03:57;;;;;;;9.20;6.63;;;;;;;;;;5055555;28;20029;-66
2021/05/18 23:06:23;;;;;;;11.50;7.25;;;;;;;;;;5055619;28;20060;-66
2021/05/18 23:08:50;;;;;;;16.35;7.97;;;;;;;;;;5055613;28;20017;-66
2021/05/18 23:11:16;;;;;;;13.35;6.90;;;;;;;;;;5070530;28;20070;-66
2021/05/18 23:13:42;;;;;;;12.32;7.60;;;;;;;;;;5055281;28;20104;-66
2021/05/18 23:16:11;;;;;;;14.43;7.43;;;;;;;;;;5055265;28;20604;-66
2021/05/18 23:18:38;;;;;;;11.23;7.55;;;;;;;;;;5054075;28;20441;-65
2021/05/18 23:21:04;;;;;;;11.98;7.13;;;;;;;;;;5055192;28;20491;-66
2021/05/18 23:23:31;;;;;;;11.82;7.43;;;;;;;;;;5054093;28;20100;-66
2021/05/18 23:25:57;;;;;;;12.93;7.78;;;;;;;;;;5055252;28;20466;-66
2021/05/18 23:28:24;;;;;;;10.52;7.30;;;;;;;;;;5053406;28;20119;-65
2021/05/18 23:30:50;;;;;;;12.10;6.93;;;;;;;;;;5055020;28;20021;-66
2021/05/18 23:33:16;;;;;;;10.52;6.88;;;;;;;;;;5054770;28;20025;-65
2021/05/18 23:35:43;;;;;;;13.90;7.25;;;;;;;;;;5055089;28;20533;-66
2021/05/18 23:38:09;;;;;;;11.57;7.15;;;;;;;;;;5054701;28;20096;-66
2021/05/18 23:40:36;;;;;;;17.23;7.30;;;;;;;;;;5054872;28;20044;-65
2021/05/18 23:43:02;;;;;;;10.85;7.22;;;;;;;;;;5054949;28;20100;-65
2021/05/18 23:45:28;;;;;;;9.85;6.63;;;;;;;;;;5055040;28;20112;-66
2021/05/18 23:47:54;;;;;;;12.13;7.15;;;;;;;;;;5054888;28;20040;-66
2021/05/18 23:50:21;;;;;;;12.45;6.05;;;;;;;;;;5053620;28;20043;-65
2021/05/18 23:52:47;;;;;;;13.60;6.78;;;;;;;;;;5055078;28;20028;-65
2021/05/18 23:55:14;;;;;;;10.45;6.63;;;;;;;;;;5054921;28;20021;-66
2021/05/18 23:57:40;;;;;;;12.32;6.88;;;;;;;;;;5053124;28;20379;-65
